sensor_id;sensor_type;location;lat;lon;timestamp;pressure;altitude;pressure_sealevel;temperature;humidity
49835;BME280;35729;52.090;13.162;2023-12-07T00:01:38;101175.41;;;0.29;100.00
49835;BME280;35729;52.090;13.162;2023-12-07T00:04:03;101178.84;;;0.28;100.00
49835;BME280;35729;52.090;13.162;2023-12-07T00:06:32;101175.41;;;0.29;100.00
49835;BME280;35729;52.090;13.162;2023-12-07T00:09:00;101175.41;;;0.29;100.00
49835;BME280;35729;52.090;13.162;2023-12-07T00:11:29;101178.88;;;0.29;100.00
49835;BME280;35729;52.090;13.162;2023-12-07T00:14:00;101178.00;;;0.29;100.00
49835;BME280;35729;52.090;13.162;2023-12-07T00:35:29;101191.00;;;0.32;100.00
49835;BME280;35729;52.090;13.162;2023-12-07T00:37:58;101186.69;;;0.32;100.00
49835;BME280;35729;52.090;13.162;2023-12-07T00:40:33;101179.88;;;0.35;100.00
49835;BME280;35729;52.090;13.162;2023-12-07T00:43:05;101191.06;;;0.35;100.00
49835;BME280;35729;52.090;13.162;2023-12-07T00:45:33;101197.13;;;0.36;100.00
49835;BME280;35729;52.090;13.162;2023-12-07T00:48:02;101187.63;;;0.35;100.00
49835;BME280;35729;52.090;13.162;2023-12-07T00:50:33;101195.38;;;0.35;100.00
49835;BME280;35729;52.090;13.162;2023-12-07T00:53:01;101197.13;;;0.36;100.00
49835;BME280;35729;52.090;13.162;2023-12-07T00:55:30;101208.31;;;0.36;100.00
49835;BME280;35729;52.090;13.162;2023-12-07T00:57:58;101202.28;;;0.36;100.00
49835;BME280;35729;52.090;13.162;2023-12-07T01:00:27;101211.75;;;0.37;100.00
49835;BME280;35729;52.090;13.162;2023-12-07T01:02:56;101213.47;;;0.36;100.00
49835;BME280;35729;52.090;13.162;2023-12-07T01:05:25;101213.47;;;0.36;100.00
49835;BME280;35729;52.090;13.162;2023-12-07T01:07:56;101218.63;;;0.36;100.00
49835;BME280;35729;52.090;13.162;2023-12-07T01:10:24;101225.56;;;0.37;100.00
49835;BME280;35729;52.090;13.162;2023-12-07T01:12:52;101218.63;;;0.36;100.00
49835;BME280;35729;52.090;13.162;2023-12-07T01:15:21;101224.72;;;0.38;100.00
49835;BME280;35729;52.090;13.162;2023-12-07T01:17:49;101220.41;;;0.37;100.00
49835;BME280;35729;52.090;13.162;2023-12-07T01:20:18;101220.41;;;0.37;100.00
49835;BME280;35729;52.090;13.162;2023-12-07T01:22:46;101227.31;;;0.38;100.00
49835;BME280;35729;52.090;13.162;2023-12-07T01:25:17;101235.91;;;0.39;100.00
49835;BME280;35729;52.090;13.162;2023-12-07T01:27:47;101236.75;;;0.38;100.00
49835;BME280;35729;52.090;13.162;2023-12-07T01:30:16;101241.91;;;0.38;100.00
49835;BME280;35729;52.090;13.162;2023-12-07T01:32:44;101245.38;;;0.38;100.00
49835;BME280;35729;52.090;13.162;2023-12-07T01:35:13;101242.81;;;0.38;100.00
49835;BME280;35729;52.090;13.162;2023-12-07T01:37:41;101247.06;;;0.38;100.00
49835;BME280;35729;52.090;13.162;2023-12-07T01:40:19;101251.38;;;0.37;100.00
49835;BME280;35729;52.090;13.162;2023-12-07T01:42:51;101252.19;;;0.36;100.00
49835;BME280;35729;52.090;13.162;2023-12-07T01:45:20;101249.66;;;0.38;100.00
49835;BME280;35729;52.090;13.162;2023-12-07T01:47:50;101253.97;;;0.37;100.00
49835;BME280;35729;52.090;13.162;2023-12-07T01:50:20;101253.97;;;0.37;100.00
49835;BME280;35729;52.090;13.162;2023-12-07T01:52:54;101253.97;;;0.37;100.00
49835;BME280;35729;52.090;13.162;2023-12-07T01:55:26;101260.03;;;0.39;100.00
49835;BME280;35729;52.090;13.162;2023-12-07T01:57:55;101254.00;;;0.39;100.00
49835;BME280;35729;52.090;13.162;2023-12-07T02:00:25;101259.16;;;0.39;100.00
49835;BME280;35729;52.090;13.162;2023-12-07T02:02:55;101266.94;;;0.40;100.00
49835;BME280;35729;52.090;13.162;2023-12-07T02:05:24;101261.78;;;0.40;100.00
49835;BME280;35729;52.090;13.162;2023-12-07T02:07:54;101260.13;;;0.42;100.00
49835;BME280;35729;52.090;13.162;2023-12-07T02:10:25;101256.72;;;0.43;100.00
49835;BME280;35729;52.090;13.162;2023-12-07T02:12:54;101259.28;;;0.43;100.00
49835;BME280;35729;52.090;13.162;2023-12-07T02:15:23;101264.47;;;0.43;100.00
49835;BME280;35729;52.090;13.162;2023-12-07T02:17:55;101266.16;;;0.43;100.00
49835;BME280;35729;52.090;13.162;2023-12-07T02:20:29;101262.72;;;0.44;100.00
49835;BME280;35729;52.090;13.162;2023-12-07T02:23:01;101267.91;;;0.44;100.00
49835;BME280;35729;52.090;13.162;2023-12-07T02:25:36;101270.44;;;0.42;100.00
49835;BME280;35729;52.090;13.162;2023-12-07T02:28:08;101268.78;;;0.44;100.00
49835;BME280;35729;52.090;13.162;2023-12-07T02:30:37;101274.81;;;0.45;100.00
49835;BME280;35729;52.090;13.162;2023-12-07T02:33:05;101277.38;;;0.43;100.00
49835;BME280;35729;52.090;13.162;2023-12-07T02:35:35;101280.84;;;0.45;100.00
49835;BME280;35729;52.090;13.162;2023-12-07T02:38:05;101273.09;;;0.45;100.00
49835;BME280;35729;52.090;13.162;2023-12-07T02:40:41;101279.97;;;0.45;100.00
49835;BME280;35729;52.090;13.162;2023-12-07T02:43:20;101287.72;;;0.45;100.00
49835;BME280;35729;52.090;13.162;2023-12-07T02:45:49;101291.16;;;0.45;100.00
49835;BME280;35729;52.090;13.162;2023-12-07T02:48:20;101289.44;;;0.44;100.00
49835;BME280;35729;52.090;13.162;2023-12-07T02:50:49;101294.63;;;0.44;100.00
49835;BME280;35729;52.090;13.162;2023-12-07T02:53:17;101295.47;;;0.45;100.00
49835;BME280;35729;52.090;13.162;2023-12-07T02:55:46;101293.72;;;0.44;100.00
49835;BME280;35729;52.090;13.162;2023-12-07T02:58:14;101286.88;;;0.44;100.00
49835;BME280;35729;52.090;13.162;2023-12-07T03:00:45;101290.28;;;0.43;100.00
49835;BME280;35729;52.090;13.162;2023-12-07T03:03:14;101289.38;;;0.43;100.00
49835;BME280;35729;52.090;13.162;2023-12-07T03:05:42;101295.44;;;0.43;100.00
49835;BME280;35729;52.090;13.162;2023-12-07T03:08:11;101291.97;;;0.43;100.00
49835;BME280;35729;52.090;13.162;2023-12-07T03:10:39;101296.25;;;0.42;100.00
49835;BME280;35729;52.090;13.162;2023-12-07T03:13:08;101294.53;;;0.43;100.00
49835;BME280;35729;52.090;13.162;2023-12-07T03:15:36;101291.97;;;0.43;100.00
49835;BME280;35729;52.090;13.162;2023-12-07T03:18:07;101298.03;;;0.43;100.00
49835;BME280;35729;52.090;13.162;2023-12-07T03:20:36;101298.88;;;0.44;100.00
49835;BME280;35729;52.090;13.162;2023-12-07T03:23:04;101303.19;;;0.43;100.00
49835;BME280;35729;52.090;13.162;2023-12-07T03:25:32;101304.88;;;0.43;100.00
49835;BME280;35729;52.090;13.162;2023-12-07T03:28:01;101305.75;;;0.43;100.00
49835;BME280;35729;52.090;13.162;2023-12-07T03:36:11;101300.59;;;0.43;100.00
49835;BME280;35729;52.090;13.162;2023-12-07T03:38:39;101312.69;;;0.44;100.00
49835;BME280;35729;52.090;13.162;2023-12-07T03:41:08;101314.38;;;0.44;100.00
49835;BME280;35729;52.090;13.162;2023-12-07T03:43:36;101317.88;;;0.46;100.00
49835;BME280;35729;52.090;13.162;2023-12-07T03:46:05;101323.91;;;0.46;100.00
49835;BME280;35729;52.090;13.162;2023-12-07T03:48:34;101315.34;;;0.47;100.00
49835;BME280;35729;52.090;13.162;2023-12-07T03:51:03;101315.34;;;0.47;100.00
49835;BME280;35729;52.090;13.162;2023-12-07T03:53:34;101316.28;;;0.50;100.00
49835;BME280;35729;52.090;13.162;2023-12-07T03:56:03;101315.44;;;0.51;100.00
49835;BME280;35729;52.090;13.162;2023-12-07T03:58:32;101319.75;;;0.52;100.00
49835;BME280;35729;52.090;13.162;2023-12-07T04:01:00;101314.56;;;0.50;100.00
49835;BME280;35729;52.090;13.162;2023-12-07T04:03:28;101318.03;;;0.51;100.00
49835;BME280;35729;52.090;13.162;2023-12-07T04:05:57;101315.44;;;0.51;100.00
49835;BME280;35729;52.090;13.162;2023-12-07T04:08:26;101315.47;;;0.52;100.00
49835;BME280;35729;52.090;13.162;2023-12-07T04:10:57;101315.47;;;0.52;100.00
49835;BME280;35729;52.090;13.162;2023-12-07T04:13:25;101323.25;;;0.54;100.00
49835;BME280;35729;52.090;13.162;2023-12-07T04:15:53;101318.09;;;0.54;100.00
49835;BME280;35729;52.090;13.162;2023-12-07T04:18:22;101324.09;;;0.53;100.00
49835;BME280;35729;52.090;13.162;2023-12-07T04:20:51;101333.59;;;0.54;100.00
49835;BME280;35729;52.090;13.162;2023-12-07T04:23:19;101326.78;;;0.56;100.00
49835;BME280;35729;52.090;13.162;2023-12-07T04:25:47;101334.53;;;0.56;100.00
49835;BME280;35729;52.090;13.162;2023-12-07T04:28:19;101340.56;;;0.56;100.00
49835;BME280;35729;52.090;13.162;2023-12-07T04:30:47;101344.00;;;0.57;100.00
49835;BME280;35729;52.090;13.162;2023-12-07T04:33:16;101341.41;;;0.57;100.00
49835;BME280;35729;52.090;13.162;2023-12-07T04:35:44;101348.34;;;0.58;100.00
49835;BME280;35729;52.090;13.162;2023-12-07T04:38:19;101346.66;;;0.58;100.00
49835;BME280;35729;52.090;13.162;2023-12-07T04:40:48;101351.84;;;0.60;100.00
49835;BME280;35729;52.090;13.162;2023-12-07T04:43:19;101353.53;;;0.59;100.00
49835;BME280;35729;52.090;13.162;2023-12-07T04:45:47;101352.69;;;0.59;100.00
49835;BME280;35729;52.090;13.162;2023-12-07T04:48:16;101356.19;;;0.61;100.00
49835;BME280;35729;52.090;13.162;2023-12-07T04:50:44;101356.19;;;0.61;100.00
49835;BME280;35729;52.090;13.162;2023-12-07T04:53:13;101354.47;;;0.61;100.00
49835;BME280;35729;52.090;13.162;2023-12-07T04:55:41;101352.72;;;0.60;100.00
49835;BME280;35729;52.090;13.162;2023-12-07T04:58:24;101360.50;;;0.62;100.00
49835;BME280;35729;52.090;13.162;2023-12-07T05:00:53;101367.38;;;0.61;100.00
49835;BME280;35729;52.090;13.162;2023-12-07T05:03:21;101370.00;;;0.63;100.00
49835;BME280;35729;52.090;13.162;2023-12-07T05:05:50;101371.72;;;0.62;100.00
49835;BME280;35729;52.090;13.162;2023-12-07T05:08:18;101370.00;;;0.63;100.00
49835;BME280;35729;52.090;13.162;2023-12-07T05:10:48;101374.31;;;0.62;100.00
49835;BME280;35729;52.090;13.162;2023-12-07T05:13:17;101363.09;;;0.62;100.00
49835;BME280;35729;52.090;13.162;2023-12-07T05:15:48;101363.94;;;0.61;100.00
49835;BME280;35729;52.090;13.162;2023-12-07T05:18:16;101369.13;;;0.62;100.00
49835;BME280;35729;52.090;13.162;2023-12-07T05:20:45;101370.81;;;0.62;100.00
49835;BME280;35729;52.090;13.162;2023-12-07T05:23:14;101365.72;;;0.63;100.00
49835;BME280;35729;52.090;13.162;2023-12-07T05:25:42;101367.41;;;0.63;100.00
49835;BME280;35729;52.090;13.162;2023-12-07T05:28:11;101370.94;;;0.65;100.00
49835;BME280;35729;52.090;13.162;2023-12-07T05:30:39;101376.06;;;0.63;100.00
49835;BME280;35729;52.090;13.162;2023-12-07T05:33:11;101367.50;;;0.64;100.00
49835;BME280;35729;52.090;13.162;2023-12-07T05:35:40;101371.75;;;0.64;100.00
49835;BME280;35729;52.090;13.162;2023-12-07T05:38:08;101371.75;;;0.64;100.00
49835;BME280;35729;52.090;13.162;2023-12-07T05:40:37;101379.50;;;0.64;100.00
49835;BME280;35729;52.090;13.162;2023-12-07T05:43:05;101380.41;;;0.64;100.00
49835;BME280;35729;52.090;13.162;2023-12-07T05:45:34;101378.66;;;0.63;100.00
49835;BME280;35729;52.090;13.162;2023-12-07T05:48:02;101379.47;;;0.62;100.00
49835;BME280;35729;52.090;13.162;2023-12-07T05:50:34;101378.56;;;0.62;100.00
49835;BME280;35729;52.090;13.162;2023-12-07T05:53:05;101378.53;;;0.60;100.00
49835;BME280;35729;52.090;13.162;2023-12-07T05:55:34;101380.25;;;0.60;100.00
49835;BME280;35729;52.090;13.162;2023-12-07T05:58:02;101381.94;;;0.59;100.00
49835;BME280;35729;52.090;13.162;2023-12-07T06:00:31;101387.97;;;0.58;100.00
49835;BME280;35729;52.090;13.162;2023-12-07T06:03:00;101389.63;;;0.56;100.00
49835;BME280;35729;52.090;13.162;2023-12-07T06:05:29;101392.19;;;0.56;100.00
49835;BME280;35729;52.090;13.162;2023-12-07T06:08:00;101388.81;;;0.59;100.00
49835;BME280;35729;52.090;13.162;2023-12-07T06:10:29;101400.09;;;0.61;100.00
49835;BME280;35729;52.090;13.162;2023-12-07T06:12:58;101398.38;;;0.61;100.00
49835;BME280;35729;52.090;13.162;2023-12-07T06:15:27;101393.16;;;0.60;100.00
49835;BME280;35729;52.090;13.162;2023-12-07T06:17:55;101390.53;;;0.58;100.00
49835;BME280;35729;52.090;13.162;2023-12-07T06:20:25;101399.16;;;0.59;100.00
49835;BME280;35729;52.090;13.162;2023-12-07T06:22:53;101400.03;;;0.59;100.00
49835;BME280;35729;52.090;13.162;2023-12-07T06:25:25;101405.19;;;0.59;100.00
49835;BME280;35729;52.090;13.162;2023-12-07T06:27:54;101411.22;;;0.58;100.00
49835;BME280;35729;52.090;13.162;2023-12-07T06:30:22;101407.72;;;0.58;100.00
49835;BME280;35729;52.090;13.162;2023-12-07T06:32:51;101409.41;;;0.56;100.00
49835;BME280;35729;52.090;13.162;2023-12-07T06:35:20;101415.47;;;0.58;100.00
49835;BME280;35729;52.090;13.162;2023-12-07T06:37:48;101420.63;;;0.58;100.00
49835;BME280;35729;52.090;13.162;2023-12-07T06:40:17;101422.31;;;0.56;100.00
49835;BME280;35729;52.090;13.162;2023-12-07T06:42:48;101420.56;;;0.55;100.00
49835;BME280;35729;52.090;13.162;2023-12-07T06:45:17;101427.38;;;0.53;100.00
49835;BME280;35729;52.090;13.162;2023-12-07T06:47:45;101429.88;;;0.50;100.00
49835;BME280;35729;52.090;13.162;2023-12-07T06:50:14;101433.25;;;0.47;100.00
49835;BME280;35729;52.090;13.162;2023-12-07T06:52:42;101435.75;;;0.45;100.00
49835;BME280;35729;52.090;13.162;2023-12-07T06:55:11;101435.81;;;0.47;100.00
49835;BME280;35729;52.090;13.162;2023-12-07T06:57:40;101435.75;;;0.45;100.00
49835;BME280;35729;52.090;13.162;2023-12-07T07:00:11;101434.88;;;0.45;100.00
49835;BME280;35729;52.090;13.162;2023-12-07T07:02:40;101431.50;;;0.46;100.00
49835;BME280;35729;52.090;13.162;2023-12-07T07:05:08;101427.19;;;0.46;100.00
49835;BME280;35729;52.090;13.162;2023-12-07T07:07:37;101432.34;;;0.46;100.00
49835;BME280;35729;52.090;13.162;2023-12-07T07:10:07;101431.56;;;0.49;100.00
49835;BME280;35729;52.090;13.162;2023-12-07T07:12:38;101436.72;;;0.49;100.00
49835;BME280;35729;52.090;13.162;2023-12-07T07:15:07;101439.38;;;0.51;100.00
49835;BME280;35729;52.090;13.162;2023-12-07T07:17:39;101446.22;;;0.50;100.00
49835;BME280;35729;52.090;13.162;2023-12-07T07:20:08;101448.84;;;0.52;100.00
49835;BME280;35729;52.090;13.162;2023-12-07T07:22:36;101451.34;;;0.48;100.00
49835;BME280;35729;52.090;13.162;2023-12-07T07:25:06;101454.94;;;0.54;100.00
49835;BME280;35729;52.090;13.162;2023-12-07T07:27:35;101461.88;;;0.55;100.00
49835;BME280;35729;52.090;13.162;2023-12-07T07:30:05;101460.16;;;0.55;100.00
49835;BME280;35729;52.090;13.162;2023-12-07T07:32:34;101452.38;;;0.54;100.00
49835;BME280;35729;52.090;13.162;2023-12-07T07:35:06;101453.31;;;0.56;100.00
49835;BME280;35729;52.090;13.162;2023-12-07T07:37:37;101461.97;;;0.58;100.00
49835;BME280;35729;52.090;13.162;2023-12-07T07:40:12;101459.41;;;0.59;100.00
49835;BME280;35729;52.090;13.162;2023-12-07T07:42:47;101455.19;;;0.61;100.00
49835;BME280;35729;52.090;13.162;2023-12-07T07:45:16;101459.53;;;0.62;100.00
49835;BME280;35729;52.090;13.162;2023-12-07T07:47:44;101463.91;;;0.65;100.00
49835;BME280;35729;52.090;13.162;2023-12-07T07:50:15;101453.56;;;0.65;100.00
49835;BME280;35729;52.090;13.162;2023-12-07T07:52:44;101452.75;;;0.66;100.00
49835;BME280;35729;52.090;13.162;2023-12-07T07:55:12;101455.41;;;0.69;100.00
49835;BME280;35729;52.090;13.162;2023-12-07T07:57:41;101449.47;;;0.72;100.00
49835;BME280;35729;52.090;13.162;2023-12-07T08:00:10;101458.97;;;0.73;100.00
49835;BME280;35729;52.090;13.162;2023-12-07T08:02:40;101456.44;;;0.74;100.00
49835;BME280;35729;52.090;13.162;2023-12-07T08:05:09;101449.56;;;0.75;100.00
49835;BME280;35729;52.090;13.162;2023-12-07T08:07:40;101452.19;;;0.76;100.00
49835;BME280;35729;52.090;13.162;2023-12-07T08:10:09;101454.81;;;0.78;100.00
49835;BME280;35729;52.090;13.162;2023-12-07T08:12:39;101456.63;;;0.80;100.00
49835;BME280;35729;52.090;13.162;2023-12-07T08:15:09;101462.72;;;0.83;100.00
49835;BME280;35729;52.090;13.162;2023-12-07T08:17:38;101462.72;;;0.83;100.00
49835;BME280;35729;52.090;13.162;2023-12-07T08:20:08;101467.09;;;0.85;100.00
49835;BME280;35729;52.090;13.162;2023-12-07T08:22:40;101469.72;;;0.87;100.00
49835;BME280;35729;52.090;13.162;2023-12-07T08:25:10;101478.41;;;0.89;100.00
49835;BME280;35729;52.090;13.162;2023-12-07T08:27:39;101469.88;;;0.91;100.00
49835;BME280;35729;52.090;13.162;2023-12-07T08:30:10;101472.44;;;0.91;100.00
49835;BME280;35729;52.090;13.162;2023-12-07T08:33:00;101474.25;;;0.94;100.00
49835;BME280;35729;52.090;13.162;2023-12-07T08:35:29;101479.50;;;0.97;100.00
49835;BME280;35729;52.090;13.162;2023-12-07T08:38:00;101482.97;;;0.97;100.00
49835;BME280;35729;52.090;13.162;2023-12-07T08:40:29;101485.59;;;0.99;100.00
49835;BME280;35729;52.090;13.162;2023-12-07T08:43:04;101477.84;;;0.99;100.00
49835;BME280;35729;52.090;13.162;2023-12-07T08:45:33;101480.47;;;1.01;100.00
49835;BME280;35729;52.090;13.162;2023-12-07T08:48:04;101483.94;;;1.01;100.00
49835;BME280;35729;52.090;13.162;2023-12-07T08:50:33;101483.09;;;1.02;100.00
49835;BME280;35729;52.090;13.162;2023-12-07T08:53:04;101492.59;;;1.03;100.00
49835;BME280;35729;52.090;13.162;2023-12-07T08:55:32;101486.59;;;1.04;100.00
49835;BME280;35729;52.090;13.162;2023-12-07T08:58:01;101489.22;;;1.06;100.00
49835;BME280;35729;52.090;13.162;2023-12-07T09:00:30;101487.53;;;1.06;100.00
49835;BME280;35729;52.090;13.162;2023-12-07T09:02:59;101487.59;;;1.09;100.00
49835;BME280;35729;52.090;13.162;2023-12-07T09:05:27;101495.41;;;1.11;100.00
49835;BME280;35729;52.090;13.162;2023-12-07T09:07:56;101496.34;;;1.13;100.00
49835;BME280;35729;52.090;13.162;2023-12-07T09:10:27;101499.78;;;1.13;100.00
49835;BME280;35729;52.090;13.162;2023-12-07T09:12:56;101492.09;;;1.15;100.00
49835;BME280;35729;52.090;13.162;2023-12-07T09:15:24;101501.66;;;1.18;100.00
49835;BME280;35729;52.090;13.162;2023-12-07T09:17:54;101498.19;;;1.19;100.00
49835;BME280;35729;52.090;13.162;2023-12-07T09:20:23;101502.53;;;1.20;100.00
49835;BME280;35729;52.090;13.162;2023-12-07T09:22:51;101504.31;;;1.21;100.00
49835;BME280;35729;52.090;13.162;2023-12-07T09:25:20;101508.59;;;1.20;100.00
49835;BME280;35729;52.090;13.162;2023-12-07T09:27:51;101512.91;;;1.21;100.00
49835;BME280;35729;52.090;13.162;2023-12-07T09:30:20;101512.06;;;1.21;100.00
49835;BME280;35729;52.090;13.162;2023-12-07T09:32:48;101512.06;;;1.21;100.00
49835;BME280;35729;52.090;13.162;2023-12-07T09:35:17;101508.66;;;1.22;100.00
49835;BME280;35729;52.090;13.162;2023-12-07T09:37:48;101513.00;;;1.23;100.00
49835;BME280;35729;52.090;13.162;2023-12-07T09:40:17;101517.38;;;1.25;100.00
49835;BME280;35729;52.090;13.162;2023-12-07T09:42:55;101519.97;;;1.25;100.00
49835;BME280;35729;52.090;13.162;2023-12-07T09:45:30;101519.97;;;1.25;100.00
49835;BME280;35729;52.090;13.162;2023-12-07T09:48:00;101531.09;;;1.23;100.00
49835;BME280;35729;52.090;13.162;2023-12-07T09:50:28;101518.06;;;1.20;100.00
49835;BME280;35729;52.090;13.162;2023-12-07T09:52:57;101523.16;;;1.17;100.00
49835;BME280;35729;52.090;13.162;2023-12-07T09:55:26;101521.44;;;1.17;100.00
49835;BME280;35729;52.090;13.162;2023-12-07T09:57:58;101516.22;;;1.16;100.00
49835;BME280;35729;52.090;13.162;2023-12-07T10:00:27;101516.22;;;1.16;100.00
49835;BME280;35729;52.090;13.162;2023-12-07T10:02:55;101514.50;;;1.16;100.00
49835;BME280;35729;52.090;13.162;2023-12-07T10:05:24;101518.78;;;1.14;100.00
49835;BME280;35729;52.090;13.162;2023-12-07T10:07:52;101517.94;;;1.15;100.00
49835;BME280;35729;52.090;13.162;2023-12-07T10:10:21;101513.63;;;1.16;100.00
49835;BME280;35729;52.090;13.162;2023-12-07T10:12:51;101511.97;;;1.18;100.00
49835;BME280;35729;52.090;13.162;2023-12-07T10:15:24;101512.91;;;1.21;100.00
49835;BME280;35729;52.090;13.162;2023-12-07T10:17:55;101510.44;;;1.24;100.00
49835;BME280;35729;52.090;13.162;2023-12-07T10:20:25;101505.31;;;1.26;100.00
49835;BME280;35729;52.090;13.162;2023-12-07T10:23:01;101506.25;;;1.28;100.00
49835;BME280;35729;52.090;13.162;2023-12-07T10:25:31;101510.63;;;1.30;100.00
49835;BME280;35729;52.090;13.162;2023-12-07T10:28:00;101509.72;;;1.30;100.00
49835;BME280;35729;52.090;13.162;2023-12-07T10:30:34;101504.63;;;1.32;100.00
49835;BME280;35729;52.090;13.162;2023-12-07T10:33:03;101504.66;;;1.33;100.00
49835;BME280;35729;52.090;13.162;2023-12-07T10:35:33;101512.50;;;1.36;100.00
49835;BME280;35729;52.090;13.162;2023-12-07T10:38:01;101507.31;;;1.36;100.00
49835;BME280;35729;52.090;13.162;2023-12-07T10:40:30;101505.66;;;1.38;100.00
49835;BME280;35729;52.090;13.162;2023-12-07T10:43:00;101509.19;;;1.40;100.00
49835;BME280;35729;52.090;13.162;2023-12-07T10:45:35;101505.81;;;1.43;100.00
49835;BME280;35729;52.090;13.162;2023-12-07T10:48:06;101511.88;;;1.45;100.00
49835;BME280;35729;52.090;13.162;2023-12-07T10:50:36;101514.50;;;1.46;100.00
49835;BME280;35729;52.090;13.162;2023-12-07T10:53:09;101506.75;;;1.46;100.00
49835;BME280;35729;52.090;13.162;2023-12-07T10:55:45;101512.81;;;1.47;100.00
49835;BME280;35729;52.090;13.162;2023-12-07T10:58:21;101509.31;;;1.46;100.00
49835;BME280;35729;52.090;13.162;2023-12-07T11:00:55;101504.16;;;1.46;100.00
49835;BME280;35729;52.090;13.162;2023-12-07T11:03:25;101502.47;;;1.47;100.00
49835;BME280;35729;52.090;13.162;2023-12-07T11:05:56;101501.56;;;1.46;100.00
49835;BME280;35729;52.090;13.162;2023-12-07T11:08:29;101501.50;;;1.43;100.00
49835;BME280;35729;52.090;13.162;2023-12-07T11:11:03;101498.03;;;1.43;100.00
49835;BME280;35729;52.090;13.162;2023-12-07T11:13:35;101496.28;;;1.42;100.00
49835;BME280;35729;52.090;13.162;2023-12-07T11:16:09;101498.88;;;1.42;100.00
49835;BME280;35729;52.090;13.162;2023-12-07T11:18:37;101507.47;;;1.41;100.00
49835;BME280;35729;52.090;13.162;2023-12-07T11:21:06;101500.53;;;1.40;100.00
49835;BME280;35729;52.090;13.162;2023-12-07T11:23:36;101497.13;;;1.41;100.00
49835;BME280;35729;52.090;13.162;2023-12-07T11:26:05;101493.66;;;1.40;100.00
49835;BME280;35729;52.090;13.162;2023-12-07T11:28:35;101491.91;;;1.39;100.00
49835;BME280;35729;52.090;13.162;2023-12-07T11:31:08;101494.53;;;1.41;100.00
49835;BME280;35729;52.090;13.162;2023-12-07T11:33:37;101495.41;;;1.41;100.00
49835;BME280;35729;52.090;13.162;2023-12-07T11:36:08;101490.22;;;1.41;100.00
49835;BME280;35729;52.090;13.162;2023-12-07T11:38:38;101491.16;;;1.43;100.00
49835;BME280;35729;52.090;13.162;2023-12-07T11:41:07;101490.28;;;1.43;100.00
49835;BME280;35729;52.090;13.162;2023-12-07T11:43:42;101486.91;;;1.45;100.00
49835;BME280;35729;52.090;13.162;2023-12-07T11:46:17;101491.19;;;1.45;100.00
49835;BME280;35729;52.090;13.162;2023-12-07T11:48:47;101489.50;;;1.45;100.00
49835;BME280;35729;52.090;13.162;2023-12-07T11:51:16;101487.75;;;1.44;100.00
49835;BME280;35729;52.090;13.162;2023-12-07T11:53:45;101486.84;;;1.44;100.00
49835;BME280;35729;52.090;13.162;2023-12-07T11:56:14;101485.16;;;1.44;100.00
49835;BME280;35729;52.090;13.162;2023-12-07T11:58:46;101488.63;;;1.46;100.00
49835;BME280;35729;52.090;13.162;2023-12-07T12:01:17;101486.06;;;1.46;100.00
49835;BME280;35729;52.090;13.162;2023-12-07T12:03:47;101484.34;;;1.47;100.00
49835;BME280;35729;52.090;13.162;2023-12-07T12:06:15;101480.03;;;1.46;100.00
49835;BME280;35729;52.090;13.162;2023-12-07T12:08:44;101484.34;;;1.47;100.00
49835;BME280;35729;52.090;13.162;2023-12-07T12:11:13;101482.63;;;1.48;100.00
49835;BME280;35729;52.090;13.162;2023-12-07T12:13:41;101484.41;;;1.49;100.00
49835;BME280;35729;52.090;13.162;2023-12-07T12:16:10;101480.97;;;1.50;100.00
49835;BME280;35729;52.090;13.162;2023-12-07T12:18:42;101474.97;;;1.51;100.00
49835;BME280;35729;52.090;13.162;2023-12-07T12:21:10;101471.56;;;1.52;100.00
49835;BME280;35729;52.090;13.162;2023-12-07T12:23:39;101477.63;;;1.54;100.00
49835;BME280;35729;52.090;13.162;2023-12-07T12:26:09;101480.25;;;1.55;100.00
49835;BME280;35729;52.090;13.162;2023-12-07T12:28:38;101485.50;;;1.57;100.00
49835;BME280;35729;52.090;13.162;2023-12-07T12:31:09;101481.22;;;1.59;100.00
49835;BME280;35729;52.090;13.162;2023-12-07T12:33:42;101476.94;;;1.59;100.00
49835;BME280;35729;52.090;13.162;2023-12-07T12:36:10;101468.38;;;1.62;100.00
49835;BME280;35729;52.090;13.162;2023-12-07T12:38:39;101464.09;;;1.64;100.00
49835;BME280;35729;52.090;13.162;2023-12-07T12:41:07;101463.31;;;1.67;100.00
49835;BME280;35729;52.090;13.162;2023-12-07T12:43:36;101466.81;;;1.69;100.00
49835;BME280;35729;52.090;13.162;2023-12-07T12:46:05;101466.88;;;1.70;100.00
49835;BME280;35729;52.090;13.162;2023-12-07T12:48:34;101465.19;;;1.72;100.00
49835;BME280;35729;52.090;13.162;2023-12-07T12:51:12;101466.97;;;1.73;100.00
49835;BME280;35729;52.090;13.162;2023-12-07T12:53:44;101460.06;;;1.74;100.00
49835;BME280;35729;52.090;13.162;2023-12-07T12:56:12;101473.84;;;1.74;100.00
49835;BME280;35729;52.090;13.162;2023-12-07T12:58:42;101471.28;;;1.74;100.00
49835;BME280;35729;52.090;13.162;2023-12-07T13:01:10;101473.84;;;1.74;100.00
49835;BME280;35729;52.090;13.162;2023-12-07T13:03:39;101471.28;;;1.74;100.00
49835;BME280;35729;52.090;13.162;2023-12-07T13:06:10;101469.59;;;1.75;100.00
49835;BME280;35729;52.090;13.162;2023-12-07T13:08:39;101473.84;;;1.74;100.00
49835;BME280;35729;52.090;13.162;2023-12-07T13:11:09;101470.44;;;1.75;100.00
49835;BME280;35729;52.090;13.162;2023-12-07T13:13:37;101467.81;;;1.74;100.00
49835;BME280;35729;52.090;13.162;2023-12-07T13:16:06;101471.28;;;1.74;100.00
49835;BME280;35729;52.090;13.162;2023-12-07T13:18:37;101472.13;;;1.73;100.00